Time;durP1;ratioP1;P1;durP2;ratioP2;P2;SDS_P1;SDS_P2;PMS_P1;PMS_P2;Temp;Humidity;BMP_temperature;BMP_pressure;BME280_temperature;BME280_humidity;BME280_pressure;Samples;Min_cycle;Max_cycle;Signal;HPM_P1;HPM_P2
2021/12/21 00:02:17;;;;;;;4.70;1.70;;;-0.40;99.90;;;;;;5101447;28;20076;-64
2021/12/21 00:04:43;;;;;;;5.78;1.85;;;-0.50;99.90;;;;;;5129733;27;20051;-65
2021/12/21 00:07:08;;;;;;;4.25;1.67;;;-0.20;99.90;;;;;;5098744;28;20048;-64
2021/12/21 00:09:34;;;;;;;9.30;2.00;;;-0.60;99.90;;;;;;5096017;28;20047;-64
2021/12/21 00:12:01;;;;;;;7.03;1.40;;;-0.50;99.90;;;;;;5094048;28;20059;-65
2021/12/21 00:14:39;;;;;;;6.28;1.58;;;-0.50;99.90;;;;;;5094982;28;20064;-65
2021/12/21 00:22:27;;;;;;;11.60;3.90;;;-0.60;99.90;;;;;;5127929;27;20051;-65
2021/12/21 00:24:52;;;;;;;9.27;4.53;;;-0.60;99.90;;;;;;5093570;28;20047;-65
2021/12/21 00:27:18;;;;;;;7.00;3.78;;;-0.60;99.90;;;;;;5099855;28;20039;-65
2021/12/21 00:29:44;;;;;;;9.55;3.38;;;-0.60;99.90;;;;;;5093089;28;20127;-65
2021/12/21 00:32:10;;;;;;;11.10;3.22;;;-0.60;99.90;;;;;;5110995;27;20079;-64
2021/12/21 00:34:37;;;;;;;9.48;3.13;;;-0.60;99.90;;;;;;5094191;28;20067;-64
2021/12/21 00:37:03;;;;;;;7.13;3.15;;;-0.60;99.90;;;;;;5098626;28;20048;-65
2021/12/21 00:39:29;;;;;;;9.55;3.70;;;-0.60;99.90;;;;;;5125530;27;20046;-65
2021/12/21 00:41:55;;;;;;;9.20;3.92;;;-0.60;99.90;;;;;;5094466;28;20044;-65
2021/12/21 00:44:21;;;;;;;11.93;3.50;;;-0.60;99.90;;;;;;5092065;27;20117;-65
2021/12/21 00:46:46;;;;;;;8.60;3.42;;;-0.70;99.90;;;;;;5098382;28;20056;-65
2021/12/21 00:49:14;;;;;;;8.57;3.70;;;-0.70;99.90;;;;;;5097363;27;20046;-64
2021/12/21 00:51:42;;;;;;;9.88;3.15;;;-0.50;99.90;;;;;;5101279;27;20572;-65
2021/12/21 00:54:09;;;;;;;7.95;3.03;;;-0.80;99.90;;;;;;5098217;27;20400;-65
2021/12/21 00:56:34;;;;;;;6.07;3.03;;;-0.70;99.90;;;;;;5099087;27;20073;-65
2021/12/21 00:59:00;;;;;;;9.48;3.75;;;-0.70;99.90;;;;;;5102764;27;20089;-65
2021/12/21 01:01:26;;;;;;;10.32;4.13;;;-0.80;99.90;;;;;;5098045;27;21035;-64
2021/12/21 01:03:54;;;;;;;8.45;4.13;;;-0.80;99.90;;;;;;5099268;28;20450;-64
2021/12/21 01:06:26;;;;;;;7.47;3.88;;;-0.80;99.90;;;;;;5100925;27;20074;-65
2021/12/21 01:09:07;;;;;;;11.15;4.68;;;-0.70;99.90;;;;;;5099718;27;20044;-64
2021/12/21 01:11:38;;;;;;;9.38;4.72;;;-0.80;99.90;;;;;;5100064;27;20044;-64
2021/12/21 01:16:48;;;;;;;9.40;4.57;;;-0.80;99.90;;;;;;5098556;28;20047;-65
2021/12/21 01:19:22;;;;;;;14.80;6.00;;;-0.90;99.90;;;;;;5127422;27;20043;-64
2021/12/21 01:24:29;;;;;;;24.60;11.52;;;-0.90;99.90;;;;;;5098676;27;20047;-64
2021/12/21 01:27:06;;;;;;;22.10;11.40;;;-0.90;99.90;;;;;;5099951;27;20504;-65
2021/12/21 01:29:47;;;;;;;23.08;10.60;;;-0.90;99.90;;;;;;5096684;27;20039;-64
2021/12/21 01:32:23;;;;;;;19.83;9.93;;;-0.90;99.90;;;;;;5095927;27;20047;-64
2021/12/21 01:35:00;;;;;;;18.58;9.32;;;-0.90;99.90;;;;;;5126887;27;20044;-64
2021/12/21 01:37:44;;;;;;;15.57;8.77;;;-0.90;99.90;;;;;;5099397;27;20119;-64
2021/12/21 01:40:24;;;;;;;19.75;8.88;;;-0.90;99.90;;;;;;5097043;28;20350;-64
2021/12/21 01:43:09;;;;;;;20.77;8.88;;;-0.90;99.90;;;;;;5098555;27;20047;-64
2021/12/21 01:51:06;;;;;;;13.57;7.25;;;-0.90;99.90;;;;;;5129473;27;20130;-65
2021/12/21 01:53:33;;;;;;;16.60;8.52;;;-1.00;99.90;;;;;;5099035;27;20039;-64
2021/12/21 01:55:59;;;;;;;18.92;9.13;;;-1.00;99.90;;;;;;5126788;27;20051;-64
2021/12/21 01:58:24;;;;;;;17.73;8.05;;;-1.00;99.90;;;;;;5099693;27;20358;-64
2021/12/21 02:00:50;;;;;;;14.18;6.88;;;-1.00;99.90;;;;;;5100181;27;20054;-65
2021/12/21 02:03:17;;;;;;;15.57;7.15;;;-1.00;99.90;;;;;;5127087;27;20067;-64
2021/12/21 02:05:42;;;;;;;15.80;8.18;;;-1.00;99.90;;;;;;5100485;27;20035;-65
2021/12/21 02:08:08;;;;;;;11.73;6.28;;;-1.10;99.90;;;;;;5098836;28;20047;-65
2021/12/21 02:10:34;;;;;;;11.85;5.57;;;-1.10;99.90;;;;;;5128319;27;20055;-65
2021/12/21 02:13:00;;;;;;;14.82;6.03;;;-1.10;99.90;;;;;;5097696;27;20035;-64
2021/12/21 02:15:26;;;;;;;9.50;4.72;;;-1.10;99.90;;;;;;5098870;27;20111;-65
2021/12/21 02:28:12;;;;;;;13.23;5.57;;;-1.10;99.90;;;;;;5102159;27;20048;-64
2021/12/21 02:30:42;;;;;;;11.55;5.13;;;-1.10;99.90;;;;;;5101650;27;20040;-65
2021/12/21 02:33:07;;;;;;;11.50;5.03;;;-1.10;99.90;;;;;;5096887;27;20081;-64
2021/12/21 02:35:33;;;;;;;12.73;5.53;;;-1.10;99.90;;;;;;5098847;27;20185;-64
2021/12/21 02:37:59;;;;;;;10.77;5.35;;;-1.00;99.90;;;;;;5097812;27;20160;-65
2021/12/21 02:40:26;;;;;;;10.57;5.28;;;-1.10;99.90;;;;;;5100149;27;21763;-65
2021/12/21 02:42:51;;;;;;;13.05;4.88;;;-1.10;99.90;;;;;;5095236;27;20055;-65
2021/12/21 02:45:17;;;;;;;9.10;5.82;;;-1.10;99.90;;;;;;5100575;27;20031;-64
2021/12/21 02:47:43;;;;;;;11.45;5.25;;;-1.10;99.90;;;;;;5095105;28;20047;-64
2021/12/21 02:50:09;;;;;;;9.65;4.40;;;-1.20;99.90;;;;;;5097848;27;20036;-65
2021/12/21 02:52:35;;;;;;;10.15;4.80;;;-1.00;99.90;;;;;;5098089;27;20363;-65
2021/12/21 02:55:02;;;;;;;7.88;4.70;;;-1.20;99.90;;;;;;5125622;27;20482;-65
2021/12/21 02:57:27;;;;;;;13.43;4.93;;;-1.20;99.90;;;;;;5094820;27;20051;-65
2021/12/21 02:59:53;;;;;;;6.60;4.40;;;-1.00;99.90;;;;;;5096770;27;20043;-64
2021/12/21 03:02:19;;;;;;;10.77;4.45;;;-1.30;99.90;;;;;;5095781;27;20043;-65
2021/12/21 03:04:47;;;;;;;8.13;4.93;;;-1.40;99.90;;;;;;5095356;27;20047;-65
2021/12/21 03:09:56;;;;;;;5.60;4.25;;;-1.30;99.90;;;;;;5097020;28;20401;-64
2021/12/21 03:14:48;;;;;;;11.43;4.05;;;-1.30;99.90;;;;;;5124012;27;20524;-65
2021/12/21 03:17:14;;;;;;;10.82;4.43;;;-1.30;99.90;;;;;;5099583;27;20043;-65
2021/12/21 03:19:39;;;;;;;7.10;4.22;;;-1.20;99.90;;;;;;5094376;27;20134;-64
2021/12/21 03:22:07;;;;;;;8.27;4.03;;;-1.20;99.90;;;;;;5094058;28;20053;-65
2021/12/21 03:24:33;;;;;;;7.68;4.53;;;-1.20;99.90;;;;;;5094547;28;20080;-65
2021/12/21 03:26:59;;;;;;;7.32;4.13;;;-1.30;99.90;;;;;;5095140;27;20043;-65
2021/12/21 03:29:27;;;;;;;9.13;4.35;;;-1.30;99.90;;;;;;5098569;27;20382;-64
2021/12/21 03:31:52;;;;;;;11.05;5.82;;;-1.30;99.90;;;;;;5102624;27;20040;-65
2021/12/21 03:34:18;;;;;;;9.90;5.60;;;-1.20;99.90;;;;;;5098580;27;21814;-64
2021/12/21 03:36:44;;;;;;;11.40;4.75;;;-1.30;99.90;;;;;;5099189;27;20059;-64
2021/12/21 03:39:17;;;;;;;9.65;4.28;;;-1.30;99.90;;;;;;5101474;27;20078;-64
2021/12/21 03:41:46;;;;;;;9.98;5.20;;;-1.30;99.90;;;;;;5102838;28;20393;-65
2021/12/21 03:44:13;;;;;;;10.15;4.78;;;-1.30;99.90;;;;;;5099326;27;20074;-65
2021/12/21 03:46:48;;;;;;;9.82;5.40;;;-1.30;99.90;;;;;;5098675;27;20043;-65
2021/12/21 03:52:07;;;;;;;;;;;-1.30;99.90;;;;;;5101007;27;20539;-65
2021/12/21 03:54:34;;;;;;;12.70;4.60;;;-1.30;99.90;;;;;;5098596;28;19930;-64
2021/12/21 03:57:01;;;;;;;10.32;4.93;;;-1.30;99.90;;;;;;5101880;28;20039;-65
2021/12/21 03:59:27;;;;;;;10.27;4.53;;;-1.30;99.90;;;;;;5096948;28;20044;-64
2021/12/21 04:01:53;;;;;;;13.15;5.00;;;-1.30;99.90;;;;;;5103167;28;20058;-64
2021/12/21 04:04:19;;;;;;;10.80;4.18;;;-1.30;99.90;;;;;;5094525;28;20040;-64
2021/12/21 04:06:46;;;;;;;11.43;4.90;;;-1.30;99.90;;;;;;5095284;28;20394;-64
2021/12/21 04:09:12;;;;;;;6.22;3.65;;;-1.30;99.90;;;;;;5100602;28;20150;-64
2021/12/21 04:11:38;;;;;;;7.85;3.78;;;-1.30;99.90;;;;;;5103695;28;20126;-64
2021/12/21 04:14:05;;;;;;;7.45;3.67;;;-1.30;99.90;;;;;;5098371;28;20405;-64
2021/12/21 04:16:31;;;;;;;9.55;4.50;;;-1.30;99.90;;;;;;5101104;28;20032;-64
2021/12/21 04:18:57;;;;;;;7.65;3.90;;;-1.30;99.90;;;;;;5098360;28;20040;-64
2021/12/21 04:21:23;;;;;;;10.40;4.57;;;-1.20;99.90;;;;;;5106867;27;20035;-64
2021/12/21 04:23:49;;;;;;;11.30;4.15;;;-1.30;99.90;;;;;;5136691;27;20040;-64
2021/12/21 04:26:16;;;;;;;8.40;3.90;;;-1.50;99.90;;;;;;5104859;27;20043;-64
2021/12/21 04:28:43;;;;;;;8.48;4.60;;;-1.30;99.90;;;;;;5105185;28;20069;-65
2021/12/21 04:31:10;;;;;;;9.48;3.95;;;-1.50;99.90;;;;;;5107287;27;20118;-64
2021/12/21 04:33:38;;;;;;;8.85;4.55;;;-1.30;99.90;;;;;;5105733;27;20036;-64
2021/12/21 04:36:04;;;;;;;8.05;4.43;;;-1.50;99.90;;;;;;5104504;27;20048;-64
2021/12/21 04:38:35;;;;;;;9.50;4.35;;;-1.50;99.90;;;;;;5103748;27;20126;-64
2021/12/21 04:41:15;;;;;;;8.10;3.95;;;-1.30;99.90;;;;;;5134460;27;20036;-64
2021/12/21 04:43:42;;;;;;;9.55;3.95;;;-1.60;99.90;;;;;;5106966;27;20036;-65
2021/12/21 04:46:08;;;;;;;6.35;3.85;;;-1.60;99.90;;;;;;5101169;27;20089;-64
2021/12/21 04:48:34;;;;;;;10.05;4.60;;;-1.60;99.90;;;;;;5108464;27;20514;-64
2021/12/21 04:51:00;;;;;;;4.53;3.53;;;-1.60;99.90;;;;;;5098522;27;20245;-64
2021/12/21 04:53:26;;;;;;;7.40;3.95;;;-1.60;99.90;;;;;;5103411;27;20046;-64
2021/12/21 04:55:52;;;;;;;9.63;3.92;;;-1.70;99.90;;;;;;5103294;27;20044;-64
2021/12/21 04:58:18;;;;;;;9.98;3.70;;;-1.70;99.90;;;;;;5100598;27;20044;-64
2021/12/21 05:00:44;;;;;;;9.82;3.63;;;-1.70;99.90;;;;;;5100951;28;20071;-64
2021/12/21 05:03:10;;;;;;;5.13;3.15;;;-1.70;99.90;;;;;;5099700;27;20075;-64
2021/12/21 05:05:36;;;;;;;10.32;3.35;;;-1.40;99.90;;;;;;5103020;27;20505;-64
2021/12/21 05:08:08;;;;;;;12.60;4.40;;;-1.80;99.90;;;;;;5104572;27;20039;-64
2021/12/21 05:10:56;;;;;;;5.60;3.47;;;-1.70;99.90;;;;;;5102214;27;20555;-64
2021/12/21 05:13:25;;;;;;;6.82;2.83;;;-1.70;99.90;;;;;;5099857;27;20059;-64
2021/12/21 05:15:51;;;;;;;7.72;3.90;;;-1.60;99.90;;;;;;5097159;27;20044;-64
2021/12/21 05:18:17;;;;;;;7.25;3.13;;;-1.70;99.90;;;;;;5103870;28;20035;-64
2021/12/21 05:20:43;;;;;;;8.20;3.90;;;-1.70;99.90;;;;;;5131804;27;20121;-64
2021/12/21 05:23:09;;;;;;;7.65;3.05;;;-1.60;99.90;;;;;;5099618;27;20048;-64
2021/12/21 05:25:36;;;;;;;9.10;2.90;;;-1.70;99.90;;;;;;5133901;27;20079;-64
2021/12/21 05:28:02;;;;;;;5.07;3.05;;;-1.60;99.90;;;;;;5104489;27;20398;-64
2021/12/21 05:30:28;;;;;;;9.27;3.38;;;-1.60;99.90;;;;;;5102649;27;20172;-64
2021/12/21 05:32:55;;;;;;;12.60;2.53;;;-1.60;99.90;;;;;;5101510;28;20093;-64
2021/12/21 05:35:22;;;;;;;8.07;3.60;;;-1.70;99.90;;;;;;5101411;27;20036;-64
2021/12/21 05:37:52;;;;;;;6.20;2.95;;;-1.50;99.90;;;;;;5104418;27;20032;-64
2021/12/21 05:40:19;;;;;;;14.98;3.10;;;-1.70;99.90;;;;;;5099672;27;20481;-64
2021/12/21 05:42:46;;;;;;;10.40;2.90;;;-1.80;99.90;;;;;;5097504;28;20118;-64
2021/12/21 05:45:17;;;;;;;6.20;3.53;;;-1.70;99.90;;;;;;5099564;27;20783;-64
2021/12/21 05:47:43;;;;;;;10.60;3.88;;;-1.80;99.90;;;;;;5097183;27;20065;-64
2021/12/21 05:50:16;;;;;;;2.85;2.05;;;-1.80;99.90;;;;;;5104702;27;20062;-64
2021/12/21 05:52:41;;;;;;;6.85;2.70;;;-1.80;99.90;;;;;;5101847;27;20052;-64
2021/12/21 05:55:08;;;;;;;5.05;2.63;;;-1.80;99.90;;;;;;5099267;27;20447;-64
2021/12/21 05:57:34;;;;;;;5.35;2.92;;;-1.80;99.90;;;;;;5098842;27;20398;-64
2021/12/21 06:00:00;;;;;;;7.65;2.75;;;-1.80;99.90;;;;;;5085665;28;20040;-64
2021/12/21 06:02:25;;;;;;;6.38;2.97;;;-1.80;99.90;;;;;;5101080;27;20608;-64
2021/12/21 06:04:51;;;;;;;8.57;2.90;;;-1.60;99.90;;;;;;5128130;27;20047;-64
2021/12/21 06:07:17;;;;;;;7.53;2.90;;;-1.80;99.90;;;;;;5098735;27;20032;-64
2021/12/21 06:09:45;;;;;;;8.15;3.00;;;-1.80;99.90;;;;;;5096896;28;20039;-64
2021/12/21 06:12:35;;;;;;;11.43;3.63;;;-1.80;99.90;;;;;;5095649;27;20451;-64
2021/12/21 06:23:18;;;;;;;7.43;3.25;;;-1.80;99.90;;;;;;5093560;27;20051;-64
2021/12/21 06:25:53;;;;;;;11.00;2.65;;;-1.80;99.90;;;;;;5089422;27;20501;-64
2021/12/21 06:28:20;;;;;;;6.93;2.55;;;-1.80;99.90;;;;;;5092006;28;20048;-64
2021/12/21 06:30:45;;;;;;;8.27;2.88;;;-1.80;99.90;;;;;;5090928;27;20036;-64
2021/12/21 06:33:12;;;;;;;9.45;3.40;;;-1.90;99.90;;;;;;5093486;27;20042;-64
2021/12/21 06:35:38;;;;;;;5.50;2.40;;;-1.90;99.90;;;;;;5095182;27;20031;-64
2021/12/21 06:38:05;;;;;;;8.23;3.10;;;-1.90;99.90;;;;;;5093195;27;20032;-64
2021/12/21 06:40:32;;;;;;;7.15;3.53;;;-1.90;99.90;;;;;;5091957;27;20104;-64
2021/12/21 06:43:01;;;;;;;8.60;3.30;;;-1.90;99.90;;;;;;5095930;27;20063;-64
2021/12/21 06:53:27;;;;;;;8.15;4.05;;;-1.90;99.90;;;;;;5099260;27;20075;-64
2021/12/21 06:55:53;;;;;;;11.77;3.17;;;-1.90;99.90;;;;;;5099427;27;20074;-64
2021/12/21 06:58:19;;;;;;;9.82;3.13;;;-1.90;99.90;;;;;;5095636;28;20610;-64
2021/12/21 07:00:46;;;;;;;7.40;3.65;;;-1.90;99.90;;;;;;5094386;28;20082;-64
2021/12/21 07:03:13;;;;;;;6.90;3.50;;;-1.80;99.90;;;;;;5124562;27;20043;-64
2021/12/21 07:05:40;;;;;;;9.60;3.40;;;-1.90;99.90;;;;;;5093526;27;20036;-64
2021/12/21 07:08:14;;;;;;;7.78;3.13;;;-1.90;99.90;;;;;;5099527;28;20051;-64
2021/12/21 07:10:41;;;;;;;9.10;3.88;;;-1.90;99.90;;;;;;5131808;27;20082;-64
2021/12/21 07:18:36;;;;;;;8.15;3.00;;;-2.00;99.90;;;;;;5095209;28;20143;-64
2021/12/21 07:21:02;;;;;;;7.13;3.33;;;-1.90;99.90;;;;;;5093678;28;20052;-64
2021/12/21 07:23:30;;;;;;;6.80;3.60;;;-1.90;99.90;;;;;;5097778;28;20067;-64
2021/12/21 07:25:56;;;;;;;11.02;3.10;;;-1.90;99.90;;;;;;5095127;28;20478;-64
2021/12/21 07:28:21;;;;;;;8.38;4.05;;;-2.00;99.90;;;;;;5122619;27;20048;-64
2021/12/21 07:30:47;;;;;;;6.15;3.28;;;-2.00;99.90;;;;;;5081203;27;21028;-64
2021/12/21 07:33:15;;;;;;;5.95;3.58;;;-1.60;99.90;;;;;;5078756;28;20042;-64
2021/12/21 07:35:49;;;;;;;13.27;3.45;;;-1.90;99.90;;;;;;5083437;27;20039;-63
2021/12/21 07:38:15;;;;;;;11.52;3.35;;;-2.00;99.90;;;;;;5096600;27;20040;-64
2021/12/21 07:40:41;;;;;;;9.13;3.75;;;-1.90;99.90;;;;;;5082980;28;20390;-64
2021/12/21 07:43:07;;;;;;;9.38;3.22;;;-1.90;99.90;;;;;;5079450;28;20047;-64
2021/12/21 07:45:33;;;;;;;12.68;3.17;;;-1.90;99.90;;;;;;5079144;28;20036;-64
2021/12/21 07:47:59;;;;;;;8.93;3.20;;;-1.70;99.90;;;;;;5081092;28;20042;-64
2021/12/21 07:50:27;;;;;;;7.90;3.00;;;-1.90;99.90;;;;;;5081626;28;20036;-64
2021/12/21 07:52:55;;;;;;;14.65;4.25;;;-1.40;99.90;;;;;;5079846;27;20074;-64
2021/12/21 07:55:21;;;;;;;10.75;4.13;;;-1.80;99.90;;;;;;5080237;27;20044;-64
2021/12/21 07:57:47;;;;;;;11.25;3.83;;;-1.90;99.90;;;;;;5082130;28;20039;-64
2021/12/21 08:00:14;;;;;;;10.45;4.20;;;-1.90;99.90;;;;;;5081144;28;20117;-64
2021/12/21 08:02:40;;;;;;;8.75;4.00;;;-1.80;99.90;;;;;;5080060;28;20051;-64
2021/12/21 08:05:10;;;;;;;9.38;4.68;;;-1.80;99.90;;;;;;5080259;28;20048;-64
2021/12/21 08:07:45;;;;;;;7.30;4.22;;;-1.80;99.90;;;;;;5080765;28;20521;-64
2021/12/21 08:10:25;;;;;;;17.80;5.13;;;-1.70;99.90;;;;;;5116197;27;20043;-64
2021/12/21 08:12:52;;;;;;;10.65;4.40;;;-1.70;99.90;;;;;;5113127;27;20071;-64
2021/12/21 08:15:18;;;;;;;6.90;4.45;;;-1.80;99.90;;;;;;5081286;28;20040;-64
2021/12/21 08:17:43;;;;;;;8.10;4.70;;;-1.70;99.90;;;;;;5081949;28;20035;-64
2021/12/21 08:20:10;;;;;;;10.80;4.32;;;-1.60;99.90;;;;;;5114097;27;20592;-64
2021/12/21 08:22:36;;;;;;;7.35;4.43;;;-1.40;99.90;;;;;;5080349;28;20531;-64
2021/12/21 08:25:02;;;;;;;9.88;5.38;;;-1.60;99.90;;;;;;5080145;28;20197;-64
2021/12/21 08:27:28;;;;;;;10.55;5.78;;;-1.60;99.90;;;;;;5081986;28;20122;-64
2021/12/21 08:29:53;;;;;;;10.98;4.90;;;-1.50;99.90;;;;;;5079638;28;20176;-64
2021/12/21 08:32:19;;;;;;;11.85;5.10;;;-1.50;99.90;;;;;;5081368;28;20044;-64
2021/12/21 08:34:45;;;;;;;16.05;7.15;;;-1.50;99.90;;;;;;5081334;28;20042;-64
2021/12/21 08:37:11;;;;;;;12.02;6.60;;;-1.60;99.90;;;;;;5080529;28;20375;-64
2021/12/21 08:39:39;;;;;;;16.90;6.72;;;-1.40;99.90;;;;;;5115597;27;20042;-64
2021/12/21 08:42:07;;;;;;;19.30;7.63;;;-1.50;99.90;;;;;;5081353;28;20283;-64
2021/12/21 08:44:33;;;;;;;14.73;7.22;;;-1.50;99.90;;;;;;5065175;28;20134;-64
2021/12/21 08:46:58;;;;;;;15.00;7.05;;;-1.40;99.90;;;;;;5080495;28;20050;-64
2021/12/21 08:49:25;;;;;;;16.08;7.38;;;-1.40;99.90;;;;;;5082871;28;20035;-64
2021/12/21 08:51:51;;;;;;;10.27;6.35;;;-1.10;99.90;;;;;;5080865;28;20036;-64
2021/12/21 08:54:17;;;;;;;12.57;7.13;;;-1.30;99.90;;;;;;5083629;28;20034;-64
2021/12/21 08:56:45;;;;;;;17.58;8.23;;;-1.30;99.90;;;;;;5112687;27;20043;-64
2021/12/21 08:59:13;;;;;;;12.10;7.03;;;-1.30;99.90;;;;;;5080747;28;20115;-64
2021/12/21 09:01:38;;;;;;;13.55;7.47;;;-1.20;99.90;;;;;;5080202;28;20036;-64
2021/12/21 09:04:04;;;;;;;15.23;7.30;;;-1.00;99.90;;;;;;5078866;28;20051;-64
2021/12/21 09:06:30;;;;;;;17.08;7.75;;;-1.20;99.90;;;;;;5084213;27;20084;-64
2021/12/21 09:08:56;;;;;;;13.20;7.03;;;-1.10;99.90;;;;;;5085723;27;20051;-64
2021/12/21 09:11:22;;;;;;;12.00;7.03;;;-1.10;99.90;;;;;;5084564;27;20036;-64
2021/12/21 09:13:48;;;;;;;11.10;6.57;;;-0.80;99.90;;;;;;5086297;27;20075;-64
2021/12/21 09:16:14;;;;;;;11.60;7.07;;;-1.10;99.90;;;;;;5083022;27;20032;-64
2021/12/21 09:18:39;;;;;;;13.45;7.53;;;-1.00;99.90;;;;;;5116351;27;20538;-64
2021/12/21 09:21:05;;;;;;;14.63;8.07;;;-1.00;99.90;;;;;;5083178;27;20128;-64
2021/12/21 09:23:31;;;;;;;13.20;8.95;;;-0.90;99.90;;;;;;5082832;27;20043;-64
2021/12/21 09:25:58;;;;;;;18.95;9.40;;;-0.90;99.90;;;;;;5084842;27;20055;-64
2021/12/21 09:28:24;;;;;;;19.77;10.00;;;-0.90;99.90;;;;;;5083608;28;20055;-64
2021/12/21 09:30:49;;;;;;;21.65;10.60;;;-0.80;99.90;;;;;;5083136;28;20168;-64
2021/12/21 09:33:16;;;;;;;19.92;9.68;;;-0.70;99.90;;;;;;5083316;28;20126;-64
2021/12/21 09:35:42;;;;;;;15.55;10.93;;;-0.70;99.90;;;;;;5116604;27;20036;-64
2021/12/21 09:38:08;;;;;;;16.25;10.52;;;-0.60;99.90;;;;;;5084856;27;20138;-64
2021/12/21 09:40:39;;;;;;;16.98;11.52;;;-0.60;99.90;;;;;;5083209;27;20158;-64
2021/12/21 09:43:08;;;;;;;26.45;12.55;;;-0.50;99.90;;;;;;5085367;27;20040;-64
2021/12/21 09:45:38;;;;;;;22.35;13.65;;;-0.50;99.90;;;;;;5082618;27;20044;-64
2021/12/21 09:48:13;;;;;;;28.42;15.52;;;-0.40;99.90;;;;;;5084857;27;20032;-64
2021/12/21 09:50:42;;;;;;;27.45;16.48;;;-0.30;99.90;;;;;;5083911;27;21112;-64
2021/12/21 09:53:07;;;;;;;25.25;15.85;;;-0.30;99.90;;;;;;5084587;27;20131;-64
2021/12/21 09:55:33;;;;;;;24.85;15.80;;;-0.20;99.90;;;;;;5081034;27;20480;-64
2021/12/21 09:57:59;;;;;;;22.67;14.45;;;-0.10;99.90;;;;;;5082384;27;20047;-64
2021/12/21 10:00:32;;;;;;;23.67;15.38;;;-0.10;99.90;;;;;;5115557;27;20032;-64
2021/12/21 10:03:07;;;;;;;24.77;15.27;;;0.20;99.90;;;;;;5084834;27;20077;-64
2021/12/21 10:05:36;;;;;;;25.83;15.30;;;0.30;99.90;;;;;;5083682;27;20051;-64
2021/12/21 10:08:05;;;;;;;21.20;13.60;;;0.10;99.90;;;;;;5082231;27;20055;-64
2021/12/21 10:10:34;;;;;;;22.60;13.85;;;0.20;99.90;;;;;;5117002;27;20050;-64
2021/12/21 10:13:13;;;;;;;21.38;13.05;;;0.30;99.90;;;;;;5081157;27;20055;-64
2021/12/21 10:15:45;;;;;;;19.38;13.48;;;0.40;99.90;;;;;;5082654;27;20043;-64
2021/12/21 10:18:11;;;;;;;19.95;12.95;;;0.50;99.90;;;;;;5081752;27;20049;-64
2021/12/21 10:20:44;;;;;;;22.77;13.18;;;0.70;99.90;;;;;;5084934;28;20059;-64
2021/12/21 10:23:15;;;;;;;19.45;13.05;;;0.90;99.90;;;;;;5084723;28;20600;-64
2021/12/21 10:25:44;;;;;;;21.45;11.40;;;1.10;99.90;;;;;;5082641;27;20047;-64
2021/12/21 10:28:10;;;;;;;14.13;10.88;;;1.50;99.90;;;;;;5081372;27;20054;-64
2021/12/21 10:30:51;;;;;;;26.05;11.60;;;1.70;99.90;;;;;;5114499;27;20043;-64
2021/12/21 10:33:17;;;;;;;19.83;11.23;;;1.70;99.90;;;;;;5115305;27;20039;-64
2021/12/21 10:35:43;;;;;;;16.35;10.73;;;1.90;99.90;;;;;;5082131;27;20039;-64
2021/12/21 10:38:09;;;;;;;18.10;11.55;;;2.10;99.90;;;;;;5083317;27;20047;-64
2021/12/21 10:40:38;;;;;;;16.90;9.55;;;2.10;99.90;;;;;;5087427;27;20047;-64
2021/12/21 10:43:09;;;;;;;16.45;10.77;;;2.20;99.90;;;;;;5114843;27;20047;-64
2021/12/21 10:45:36;;;;;;;22.70;10.93;;;2.50;99.90;;;;;;5080460;28;20079;-64
2021/12/21 10:48:06;;;;;;;19.20;11.93;;;2.80;99.90;;;;;;5083475;27;20051;-64
2021/12/21 10:50:34;;;;;;;17.50;10.75;;;3.00;99.90;;;;;;5080601;27;20143;-64
2021/12/21 10:53:01;;;;;;;17.13;11.05;;;3.20;99.90;;;;;;5081939;27;20058;-64
2021/12/21 10:55:30;;;;;;;16.35;11.30;;;3.30;99.90;;;;;;5079601;27;21717;-65
2021/12/21 10:58:20;;;;;;;17.70;10.75;;;3.50;99.90;;;;;;5083363;27;20073;-65
2021/12/21 11:00:53;;;;;;;16.50;10.80;;;3.70;99.90;;;;;;5079259;27;20124;-65
2021/12/21 11:03:34;;;;;;;16.75;11.18;;;3.90;99.90;;;;;;5114867;27;20359;-65
2021/12/21 11:06:11;;;;;;;18.17;10.90;;;4.10;99.90;;;;;;5083752;27;20050;-65
2021/12/21 11:08:42;;;;;;;17.45;8.98;;;4.30;99.90;;;;;;5080823;27;20054;-65
2021/12/21 11:11:29;;;;;;;18.77;9.23;;;4.60;99.90;;;;;;5113820;27;20051;-65
2021/12/21 11:14:17;;;;;;;14.65;8.52;;;4.90;99.90;;;;;;5115935;27;20043;-65
2021/12/21 11:16:49;;;;;;;13.70;8.40;;;5.20;99.90;;;;;;5083631;28;20031;-65
2021/12/21 11:19:17;;;;;;;13.82;9.00;;;5.50;99.90;;;;;;5079748;28;20499;-65
2021/12/21 11:21:44;;;;;;;13.02;7.82;;;5.80;99.90;;;;;;5081841;28;20039;-65
2021/12/21 11:24:16;;;;;;;12.07;7.30;;;6.00;99.90;;;;;;5080717;27;20036;-65
2021/12/21 11:26:45;;;;;;;9.43;7.07;;;6.40;99.90;;;;;;5082015;27;20035;-65
2021/12/21 11:29:18;;;;;;;12.85;8.02;;;6.60;99.90;;;;;;5080360;28;20035;-65
2021/12/21 11:31:48;;;;;;;10.15;6.97;;;6.70;99.90;;;;;;5113559;27;20043;-65
2021/12/21 11:34:19;;;;;;;11.85;7.07;;;6.90;99.90;;;;;;5112155;27;20048;-65
2021/12/21 11:39:35;;;;;;;14.50;7.78;;;7.00;99.90;;;;;;5099922;28;21217;-65
2021/12/21 11:42:03;;;;;;;13.18;7.00;;;6.90;99.90;;;;;;5099439;28;20032;-65
2021/12/21 11:45:07;;;;;;;13.10;6.70;;;7.10;99.90;;;;;;5100440;28;20982;-65
2021/12/21 11:48:28;;;;;;;12.77;7.00;;;7.30;99.90;;;;;;5098240;28;20117;-65
2021/12/21 11:51:05;;;;;;;10.18;7.18;;;7.50;97.10;;;;;;5055384;28;20136;-65
2021/12/21 11:53:31;;;;;;;10.90;6.78;;;7.50;98.90;;;;;;5040396;28;20738;-65
2021/12/21 11:55:57;;;;;;;13.15;7.60;;;7.50;97.70;;;;;;5083424;28;20493;-65
2021/12/21 11:58:27;;;;;;;14.30;7.75;;;7.30;98.60;;;;;;5101279;28;20081;-65
2021/12/21 12:00:56;;;;;;;12.10;6.90;;;7.30;98.80;;;;;;5096405;28;20035;-65
2021/12/21 12:03:25;;;;;;;14.63;8.05;;;7.30;99.00;;;;;;5088655;28;20102;-65
2021/12/21 12:05:54;;;;;;;14.63;7.63;;;7.30;97.40;;;;;;5118391;27;20035;-65
2021/12/21 12:08:21;;;;;;;11.32;7.25;;;7.40;97.90;;;;;;5070297;28;20131;-65
2021/12/21 12:10:59;;;;;;;12.73;7.03;;;7.40;97.30;;;;;;5078814;28;20051;-65
2021/12/21 12:13:40;;;;;;;12.27;6.93;;;7.30;96.10;;;;;;5079481;28;20074;-65
2021/12/21 12:16:12;;;;;;;13.82;7.82;;;7.30;95.50;;;;;;5081491;28;20123;-65
2021/12/21 12:18:42;;;;;;;16.58;7.90;;;7.20;94.40;;;;;;5080706;28;20043;-65
2021/12/21 12:21:20;;;;;;;12.35;7.07;;;7.00;95.00;;;;;;5112621;27;20490;-65
2021/12/21 12:23:56;;;;;;;12.57;7.28;;;7.00;96.30;;;;;;5082399;28;20079;-65
2021/12/21 12:26:30;;;;;;;16.67;7.55;;;6.80;96.90;;;;;;5115962;27;20082;-65
2021/12/21 12:29:10;;;;;;;14.55;7.35;;;6.80;97.80;;;;;;5081098;28;20105;-65
2021/12/21 12:31:39;;;;;;;11.65;7.15;;;6.90;97.90;;;;;;5081902;28;20126;-65
2021/12/21 12:34:05;;;;;;;15.30;7.50;;;6.80;98.10;;;;;;5083247;28;20032;-65
2021/12/21 12:36:53;;;;;;;12.88;7.53;;;6.80;96.10;;;;;;5085967;28;20044;-65
2021/12/21 12:39:50;;;;;;;13.10;7.93;;;6.60;94.30;;;;;;5081073;28;20044;-65
2021/12/21 12:42:28;;;;;;;15.00;7.20;;;6.50;95.80;;;;;;5086911;27;20066;-65
2021/12/21 12:45:15;;;;;;;13.27;7.05;;;6.50;94.90;;;;;;5084713;27;20048;-65
2021/12/21 12:47:46;;;;;;;12.82;6.88;;;6.50;96.80;;;;;;5091678;27;20052;-65
2021/12/21 12:50:20;;;;;;;10.57;7.03;;;6.50;97.20;;;;;;5083701;27;20039;-65
2021/12/21 12:53:02;;;;;;;11.68;6.82;;;6.50;97.10;;;;;;5086844;27;20143;-65
2021/12/21 12:56:05;;;;;;;15.90;6.78;;;6.40;97.30;;;;;;5130810;27;20064;-65
2021/12/21 12:58:31;;;;;;;13.00;5.75;;;6.40;98.50;;;;;;5097226;28;20047;-65
2021/12/21 13:01:04;;;;;;;16.27;6.80;;;6.30;98.70;;;;;;5132196;27;20044;-65
2021/12/21 13:03:42;;;;;;;12.55;5.85;;;6.20;99.40;;;;;;5131555;27;20055;-65
2021/12/21 13:06:33;;;;;;;12.77;5.40;;;6.10;98.80;;;;;;5099240;28;20570;-65
2021/12/21 13:08:59;;;;;;;10.10;5.50;;;6.00;97.70;;;;;;5081162;27;20048;-65
2021/12/21 13:11:27;;;;;;;11.60;6.00;;;5.90;98.60;;;;;;5090492;27;20539;-65
2021/12/21 13:13:54;;;;;;;10.68;6.15;;;5.80;99.50;;;;;;5083654;27;20044;-65
2021/12/21 13:16:22;;;;;;;11.70;5.32;;;5.80;99.40;;;;;;5089572;27;20036;-65
2021/12/21 13:18:56;;;;;;;10.18;6.00;;;5.80;99.70;;;;;;5082416;27;20047;-65
2021/12/21 13:21:28;;;;;;;10.55;5.25;;;5.70;99.90;;;;;;5067000;28;20058;-64
2021/12/21 13:24:13;;;;;;;9.27;4.85;;;5.60;99.50;;;;;;5100450;28;20070;-65
2021/12/21 13:26:40;;;;;;;10.38;5.28;;;5.50;99.90;;;;;;5131115;27;20131;-64
2021/12/21 13:29:09;;;;;;;12.38;5.97;;;5.40;99.90;;;;;;5098800;28;20048;-64
2021/12/21 13:31:35;;;;;;;12.48;6.00;;;5.40;99.90;;;;;;5097711;28;20040;-64
2021/12/21 13:34:01;;;;;;;11.23;5.95;;;5.40;99.90;;;;;;5099841;28;20169;-64
2021/12/21 13:36:45;;;;;;;10.43;5.25;;;5.30;99.90;;;;;;5099929;27;20043;-64
2021/12/21 13:39:41;;;;;;;10.32;4.78;;;5.20;99.90;;;;;;5126803;27;20064;-64
2021/12/21 13:42:10;;;;;;;12.60;4.85;;;5.10;99.90;;;;;;5096542;28;20036;-65
2021/12/21 13:44:39;;;;;;;10.45;4.82;;;5.00;99.90;;;;;;5099515;28;20051;-64
2021/12/21 13:47:24;;;;;;;14.43;5.38;;;5.00;99.90;;;;;;5097426;28;20048;-64
2021/12/21 13:50:02;;;;;;;8.15;4.32;;;5.00;99.90;;;;;;5096379;27;20055;-64
2021/12/21 13:52:31;;;;;;;7.97;4.95;;;5.00;99.90;;;;;;5100826;28;20054;-64
2021/12/21 13:54:57;;;;;;;14.18;5.53;;;5.00;99.90;;;;;;5090280;27;20039;-64